Llanybydder, United Kingdom
Current Conditions -  °F | °C
As of 8:50 PM on Saturday 22 Nov 2014 (Local Time) from EGOP Reporting Station
Broken Clouds Broken Clouds  
Wind Chill: 43°   Ceiling: 13000
Heat Index: 43°   Visibility: 6mi
Dew Point: 43°   Wind: 2mph
Humidity: 100%   Direction: 20°NNE
Pressure: 29.97"   Gusts: NA
Location:  52.07°N, 4.16°W
Report Text: EGOP 222050Z AUTO 02002KT 9999 // BKN130/// BKN180/// 06/06 Q1015
Loading
Personal Weather Stations






























Interactive Weather Map New forecast layout! Learn more

10-Day Weather Forecast

Advertisements
Track Severe Weather on mobile